createdAt,value
2022-08-14T00:02:10.241Z,18.63
2022-08-14T00:05:20.073Z,18.64
2022-08-14T00:08:43.565Z,18.62
2022-08-14T00:11:51.384Z,18.62
2022-08-14T00:15:00.663Z,18.65
2022-08-14T00:18:14.531Z,18.63
2022-08-14T00:21:40.922Z,18.61
2022-08-14T00:24:46.801Z,18.59
2022-08-14T00:27:56.029Z,18.56
2022-08-14T00:31:03.024Z,18.55
2022-08-14T00:34:36.372Z,18.57
2022-08-14T00:37:43.612Z,18.54
2022-08-14T00:40:50.815Z,18.52
2022-08-14T00:44:00.739Z,18.50
2022-08-14T00:47:10.607Z,18.50
2022-08-14T00:50:22.551Z,18.50
2022-08-14T00:53:32.776Z,18.46
2022-08-14T00:56:40.071Z,18.44
2022-08-14T00:59:46.859Z,18.40
2022-08-14T01:02:57.015Z,18.38
2022-08-14T01:06:09.628Z,18.40
2022-08-14T01:09:15.694Z,18.38
2022-08-14T01:12:27.218Z,18.40
2022-08-14T01:15:58.690Z,18.39
2022-08-14T01:19:19.797Z,18.36
2022-08-14T01:22:29.645Z,18.39
2022-08-14T01:25:37.834Z,18.36
2022-08-14T01:28:56.782Z,18.36
2022-08-14T01:32:04.777Z,18.37
2022-08-14T01:36:03.025Z,18.37
2022-08-14T01:38:49.099Z,18.38
2022-08-14T01:41:58.079Z,18.36
2022-08-14T01:45:12.879Z,18.34
2022-08-14T01:48:33.386Z,18.34
2022-08-14T01:51:46.598Z,18.34
2022-08-14T01:54:58.435Z,18.30
2022-08-14T01:58:19.665Z,18.31
2022-08-14T02:01:26.971Z,18.25
2022-08-14T02:04:55.126Z,18.27
2022-08-14T02:08:22.613Z,18.26
2022-08-14T02:11:46.169Z,18.21
2022-08-14T02:15:00.458Z,18.17
2022-08-14T02:18:08.509Z,18.15
2022-08-14T02:21:19.522Z,18.19
2022-08-14T02:24:39.753Z,18.18
2022-08-14T02:28:22.426Z,18.15
2022-08-14T02:31:17.585Z,18.10
2022-08-14T02:34:32.350Z,18.15
2022-08-14T02:37:48.014Z,18.14
2022-08-14T02:40:54.479Z,18.16
2022-08-14T02:44:06.106Z,18.17
2022-08-14T02:47:14.946Z,18.13
2022-08-14T02:50:22.098Z,18.13
2022-08-14T02:53:33.609Z,18.10
2022-08-14T02:57:15.273Z,18.07
2022-08-14T03:00:18.807Z,18.04
2022-08-14T03:03:25.840Z,18.07
2022-08-14T03:06:35.251Z,18.07
2022-08-14T03:10:25.956Z,18.07
2022-08-14T03:13:24.661Z,18.12
2022-08-14T03:16:38.599Z,18.13
2022-08-14T03:19:45.172Z,18.16
2022-08-14T03:22:52.781Z,18.17
2022-08-14T03:25:58.971Z,18.17
2022-08-14T03:29:13.874Z,18.09
2022-08-14T03:32:27.369Z,18.13
2022-08-14T03:35:40.258Z,18.14
2022-08-14T03:39:13.080Z,18.12
2022-08-14T03:42:35.836Z,18.14
2022-08-14T03:45:48.719Z,18.14
2022-08-14T03:48:59.614Z,18.20
2022-08-14T03:52:37.644Z,18.20
2022-08-14T03:55:36.798Z,18.19
2022-08-14T03:58:45.589Z,18.25
2022-08-14T04:01:58.162Z,18.31
2022-08-14T04:05:14.661Z,18.35
2022-08-14T04:08:30.968Z,18.40
2022-08-14T04:11:39.065Z,18.43
2022-08-14T04:14:47.428Z,18.40
2022-08-14T04:17:55.082Z,18.44
2022-08-14T04:21:05.864Z,18.42
2022-08-14T04:24:14.093Z,18.37
2022-08-14T04:27:24.947Z,18.36
2022-08-14T04:30:32.890Z,18.36
2022-08-14T04:33:40.341Z,18.31
2022-08-14T04:37:07.237Z,18.29
2022-08-14T04:40:32.078Z,18.37
2022-08-14T04:43:41.032Z,18.36
2022-08-14T04:47:08.595Z,18.30
2022-08-14T04:50:13.792Z,18.28
2022-08-14T04:53:35.107Z,18.29
2022-08-14T04:56:42.702Z,18.27
2022-08-14T04:59:50.896Z,18.31
2022-08-14T05:02:57.429Z,18.34
2022-08-14T05:06:34.925Z,18.33
2022-08-14T05:09:36.566Z,18.29
2022-08-14T05:13:10.967Z,18.28
2022-08-14T05:16:19.042Z,18.38
2022-08-14T05:19:29.098Z,18.40
2022-08-14T05:22:35.719Z,18.44
2022-08-14T05:25:47.863Z,18.44
2022-08-14T05:28:58.516Z,18.45
2022-08-14T05:32:08.547Z,18.37
2022-08-14T05:35:14.744Z,18.38
2022-08-14T05:38:31.706Z,18.43
2022-08-14T05:41:53.164Z,18.48
2022-08-14T05:45:00.888Z,18.51
2022-08-14T05:48:09.767Z,18.57
2022-08-14T05:51:16.850Z,18.51
2022-08-14T05:54:26.999Z,18.60
2022-08-14T05:57:37.775Z,18.70
2022-08-14T06:00:49.463Z,18.79
2022-08-14T06:03:56.775Z,18.87
2022-08-14T06:07:03.143Z,18.96
2022-08-14T06:10:12.926Z,18.98
2022-08-14T06:13:31.787Z,18.99
2022-08-14T06:16:53.399Z,19.01
2022-08-14T06:20:00.988Z,19.12
2022-08-14T06:23:09.083Z,19.19
2022-08-14T06:26:14.991Z,19.32
2022-08-14T06:29:25.901Z,19.36
2022-08-14T06:32:39.468Z,19.41
2022-08-14T06:35:50.157Z,19.44
2022-08-14T06:38:56.574Z,19.56
2022-08-14T06:42:05.861Z,19.63
2022-08-14T06:45:15.960Z,19.68
2022-08-14T06:48:27.408Z,19.80
2022-08-14T06:51:39.047Z,19.87
2022-08-14T06:54:51.717Z,19.89
2022-08-14T06:57:58.514Z,19.94
2022-08-14T07:01:26.692Z,20.06
2022-08-14T07:04:49.000Z,20.14
2022-08-14T07:07:55.835Z,20.14
2022-08-14T07:11:04.220Z,20.21
2022-08-14T07:14:11.189Z,20.33
2022-08-14T07:17:23.099Z,20.41
2022-08-14T07:20:31.884Z,20.37
2022-08-14T07:23:40.029Z,20.37
2022-08-14T07:26:51.094Z,20.38
2022-08-14T07:29:57.226Z,20.34
2022-08-14T07:33:08.580Z,20.31
2022-08-14T07:36:27.748Z,20.30
2022-08-14T07:39:37.542Z,20.28
2022-08-14T07:42:44.924Z,20.22
2022-08-14T07:45:53.990Z,20.19
2022-08-14T07:49:03.330Z,20.17
2022-08-14T07:52:10.442Z,20.24
2022-08-14T07:55:21.209Z,20.35
2022-08-14T07:58:31.702Z,20.41
2022-08-14T08:01:48.208Z,20.48
2022-08-14T08:05:03.568Z,20.51
2022-08-14T08:08:27.168Z,20.51
2022-08-14T08:11:37.807Z,20.38
2022-08-14T08:14:56.037Z,20.44
2022-08-14T08:18:10.256Z,20.51
2022-08-14T08:21:36.122Z,20.60
2022-08-14T08:24:44.100Z,20.61
2022-08-14T08:28:08.758Z,20.63
2022-08-14T08:31:16.852Z,20.58
2022-08-14T08:34:24.533Z,20.55
2022-08-14T08:37:40.368Z,20.54
2022-08-14T08:40:51.475Z,20.65
2022-08-14T08:44:17.519Z,20.79
2022-08-14T08:47:42.063Z,20.95
2022-08-14T08:50:49.374Z,21.04
2022-08-14T08:54:06.693Z,21.09
2022-08-14T08:57:21.334Z,21.10
2022-08-14T09:00:28.418Z,21.09
2022-08-14T09:03:43.985Z,21.09
2022-08-14T09:07:09.445Z,21.13
2022-08-14T09:10:22.121Z,21.22
2022-08-14T09:13:30.692Z,21.33
2022-08-14T09:16:41.566Z,21.39
2022-08-14T09:19:52.879Z,21.57
2022-08-14T09:23:03.032Z,21.74
2022-08-14T09:26:21.236Z,22.03
2022-08-14T09:29:29.163Z,22.27
2022-08-14T09:33:09.287Z,22.59
2022-08-14T09:36:43.930Z,22.82
2022-08-14T09:40:03.722Z,22.88
2022-08-14T09:43:26.091Z,23.03
2022-08-14T09:46:33.404Z,23.14
2022-08-14T09:49:42.723Z,23.31
2022-08-14T09:52:54.875Z,23.53
2022-08-14T09:56:10.031Z,23.65
2022-08-14T09:59:22.637Z,23.55
2022-08-14T10:02:31.562Z,23.42
2022-08-14T10:05:41.042Z,23.40
2022-08-14T10:08:53.365Z,23.43
2022-08-14T10:12:04.759Z,23.58
2022-08-14T10:15:23.827Z,23.68
2022-08-14T10:18:31.836Z,23.73
2022-08-14T10:23:11.101Z,23.83
2022-08-14T10:25:15.591Z,23.99
2022-08-14T10:29:03.461Z,24.06
2022-08-14T10:32:00.875Z,24.28
2022-08-14T10:35:13.991Z,24.48
2022-08-14T10:38:32.067Z,24.57
2022-08-14T10:41:47.600Z,24.86
2022-08-14T10:44:55.169Z,25.04
2022-08-14T10:48:24.442Z,25.09
2022-08-14T10:51:44.116Z,25.18
2022-08-14T10:54:56.377Z,25.32
2022-08-14T10:58:03.042Z,25.59
2022-08-14T11:01:10.785Z,25.67
2022-08-14T11:04:30.531Z,25.71
2022-08-14T11:07:40.231Z,25.71
2022-08-14T11:10:52.854Z,25.89
2022-08-14T11:14:00.565Z,25.98
2022-08-14T11:17:07.898Z,26.03
2022-08-14T11:20:20.912Z,26.20
2022-08-14T11:23:38.088Z,26.23
2022-08-14T11:26:48.302Z,26.25
2022-08-14T11:30:00.660Z,26.23
2022-08-14T11:33:29.409Z,26.12
2022-08-14T11:37:09.612Z,26.19
2022-08-14T11:40:07.200Z,26.21
2022-08-14T11:43:13.375Z,26.19
2022-08-14T11:46:30.585Z,26.10
2022-08-14T11:49:43.568Z,26.05
2022-08-14T11:52:56.765Z,26.05
2022-08-14T11:56:11.001Z,26.07
2022-08-14T11:59:20.311Z,26.07
2022-08-14T12:03:00.343Z,26.19
2022-08-14T12:06:09.527Z,26.02
2022-08-14T12:09:42.809Z,25.98
2022-08-14T12:12:55.235Z,26.19
2022-08-14T12:16:06.621Z,26.49
2022-08-14T12:19:18.284Z,26.67
2022-08-14T12:22:37.128Z,26.86
2022-08-14T12:25:59.366Z,27.03
2022-08-14T12:29:16.395Z,27.25
2022-08-14T12:32:23.237Z,27.18
2022-08-14T12:35:39.930Z,26.96
2022-08-14T12:38:47.188Z,26.69
2022-08-14T12:42:06.619Z,26.60
2022-08-14T12:45:17.244Z,26.69
2022-08-14T12:48:32.166Z,26.81
2022-08-14T12:51:42.269Z,26.90
2022-08-14T12:54:57.457Z,26.88
2022-08-14T12:58:29.384Z,26.77
2022-08-14T13:01:59.540Z,26.76
2022-08-14T13:05:09.873Z,26.61
2022-08-14T13:08:33.052Z,26.40
2022-08-14T13:11:45.042Z,26.32
2022-08-14T13:14:55.306Z,26.31
2022-08-14T13:18:04.999Z,26.35
2022-08-14T13:21:15.019Z,26.36
2022-08-14T13:24:27.736Z,26.53
2022-08-14T13:27:39.424Z,26.65
2022-08-14T13:30:50.625Z,26.82
2022-08-14T13:34:01.174Z,27.05
2022-08-14T13:37:10.627Z,27.15
2022-08-14T13:40:22.066Z,27.26
2022-08-14T13:43:36.966Z,27.12
2022-08-14T13:46:58.759Z,27.13
2022-08-14T13:50:09.657Z,26.96
2022-08-14T13:53:17.765Z,26.94
2022-08-14T13:56:36.715Z,26.98
2022-08-14T13:59:47.890Z,26.93
2022-08-14T14:03:03.096Z,27.04
2022-08-14T14:06:10.574Z,27.13
2022-08-14T14:09:18.601Z,27.19
2022-08-14T14:12:38.475Z,27.22
2022-08-14T14:15:58.599Z,27.28
2022-08-14T14:19:08.838Z,27.45
2022-08-14T14:23:01.245Z,27.58
2022-08-14T14:25:51.130Z,27.58
2022-08-14T14:29:07.685Z,27.81
2022-08-14T14:32:21.275Z,27.86
2022-08-14T14:35:32.963Z,27.84
2022-08-14T14:38:45.307Z,27.68
2022-08-14T14:41:56.141Z,27.48
2022-08-14T14:45:07.877Z,27.36
2022-08-14T14:48:17.415Z,27.21
2022-08-14T14:51:28.156Z,27.36
2022-08-14T14:54:37.507Z,27.39
2022-08-14T14:57:44.584Z,27.44
2022-08-14T15:01:03.706Z,27.32
2022-08-14T15:04:20.950Z,27.28
2022-08-14T15:07:32.299Z,27.15
2022-08-14T15:10:40.529Z,27.02
2022-08-14T15:13:52.879Z,26.92
2022-08-14T15:17:00.456Z,26.88
2022-08-14T15:20:11.404Z,26.86
2022-08-14T15:23:32.325Z,26.94
2022-08-14T15:26:51.329Z,27.04
2022-08-14T15:29:58.008Z,27.10
2022-08-14T15:33:06.895Z,27.28
2022-08-14T15:36:16.692Z,27.52
2022-08-14T15:39:38.465Z,27.91
2022-08-14T15:42:48.448Z,28.55
2022-08-14T15:45:56.309Z,29.24
2022-08-14T15:49:03.690Z,30.08
2022-08-14T15:52:11.416Z,30.91
2022-08-14T15:55:23.082Z,31.58
2022-08-14T15:58:30.293Z,32.00
2022-08-14T16:01:53.496Z,32.41
2022-08-14T16:05:01.193Z,32.87
2022-08-14T16:08:27.480Z,33.25
2022-08-14T16:11:47.444Z,33.50
2022-08-14T16:14:59.794Z,33.33
2022-08-14T16:18:17.390Z,32.97
2022-08-14T16:21:25.525Z,32.58
2022-08-14T16:25:00.383Z,32.05
2022-08-14T16:28:07.354Z,31.20
2022-08-14T16:31:16.089Z,30.77
2022-08-14T16:34:44.007Z,31.08
2022-08-14T16:37:48.955Z,30.99
2022-08-14T16:41:16.774Z,30.85
2022-08-14T16:44:41.040Z,30.48
2022-08-14T16:47:50.703Z,30.03
2022-08-14T16:50:57.564Z,29.58
2022-08-14T16:54:21.040Z,29.11
2022-08-14T16:57:33.155Z,28.54
2022-08-14T17:00:45.276Z,28.13
2022-08-14T17:03:56.720Z,27.78
2022-08-14T17:07:04.317Z,27.54
2022-08-14T17:10:12.489Z,27.31
2022-08-14T17:13:47.473Z,27.11
2022-08-14T17:16:59.041Z,26.90
2022-08-14T17:20:08.843Z,26.72
2022-08-14T17:23:34.086Z,26.52
2022-08-14T17:26:46.689Z,26.36
2022-08-14T17:29:57.757Z,26.26
2022-08-14T17:33:15.839Z,26.17
2022-08-14T17:36:24.648Z,26.05
2022-08-14T17:39:40.026Z,25.98
2022-08-14T17:43:02.427Z,25.91
2022-08-14T17:46:09.592Z,25.84
2022-08-14T17:49:24.010Z,25.77
2022-08-14T17:52:35.914Z,25.68
2022-08-14T17:56:01.203Z,25.60
2022-08-14T17:59:09.920Z,25.51
2022-08-14T18:02:19.717Z,25.45
2022-08-14T18:06:07.400Z,25.36
2022-08-14T18:08:57.027Z,25.27
2022-08-14T18:12:05.461Z,25.18
2022-08-14T18:15:17.679Z,25.09
2022-08-14T18:18:24.874Z,25.01
2022-08-14T18:21:57.405Z,24.92
2022-08-14T18:25:18.071Z,24.84
2022-08-14T18:28:51.619Z,24.74
2022-08-14T18:31:56.567Z,24.66
2022-08-14T18:35:11.392Z,24.60
2022-08-14T18:38:46.238Z,24.51
2022-08-14T18:41:53.063Z,24.44
2022-08-14T18:45:15.350Z,24.39
2022-08-14T18:48:50.175Z,24.31
2022-08-14T18:52:18.526Z,24.21
2022-08-14T18:55:53.716Z,24.13
2022-08-14T18:59:00.580Z,24.02
2022-08-14T19:02:45.773Z,23.93
2022-08-14T19:06:03.038Z,23.80
2022-08-14T19:09:11.651Z,23.72
2022-08-14T19:13:00.594Z,23.62
2022-08-14T19:16:13.480Z,23.47
2022-08-14T19:19:19.562Z,23.37
2022-08-14T19:22:34.038Z,23.24
2022-08-14T19:26:36.375Z,23.18
2022-08-14T19:29:40.027Z,23.08
2022-08-14T19:32:50.737Z,23.01
2022-08-14T19:36:29.263Z,22.90
2022-08-14T19:39:53.784Z,22.76
2022-08-14T19:43:06.389Z,22.67
2022-08-14T19:46:38.005Z,22.59
2022-08-14T19:50:24.659Z,22.53
2022-08-14T19:53:17.533Z,22.47
2022-08-14T19:56:28.794Z,22.42
2022-08-14T19:59:57.363Z,22.38
2022-08-14T20:03:10.651Z,22.34
2022-08-14T20:06:18.082Z,22.28
2022-08-14T20:11:03.515Z,22.23
2022-08-14T20:13:00.111Z,22.19
2022-08-14T20:16:21.287Z,22.15
2022-08-14T20:19:41.544Z,22.11
2022-08-14T20:22:49.167Z,22.06
2022-08-14T20:26:02.991Z,22.03
2022-08-14T20:29:09.955Z,22.00
2022-08-14T20:32:21.664Z,21.96
2022-08-14T20:35:39.879Z,21.94
2022-08-14T20:38:50.489Z,21.89
2022-08-14T20:42:19.408Z,21.85
2022-08-14T20:45:25.390Z,21.83
2022-08-14T20:48:51.048Z,21.81
2022-08-14T20:52:20.091Z,21.78
2022-08-14T20:55:33.631Z,21.70
2022-08-14T20:58:44.242Z,21.67
2022-08-14T21:01:56.141Z,21.63
2022-08-14T21:05:16.781Z,21.60
2022-08-14T21:08:26.057Z,21.60
2022-08-14T21:11:33.411Z,21.56
2022-08-14T21:14:41.141Z,21.52
2022-08-14T21:18:00.359Z,21.47
2022-08-14T21:21:11.882Z,21.43
2022-08-14T21:24:38.941Z,21.38
2022-08-14T21:27:57.471Z,21.32
2022-08-14T21:31:06.190Z,21.28
2022-08-14T21:34:27.424Z,21.22
2022-08-14T21:37:44.051Z,21.18
2022-08-14T21:40:53.346Z,21.14
2022-08-14T21:44:17.652Z,21.10
2022-08-14T21:47:26.912Z,21.02
2022-08-14T21:50:56.447Z,20.99
2022-08-14T21:54:07.785Z,20.97
2022-08-14T21:57:56.090Z,20.95
2022-08-14T22:01:00.435Z,20.91
2022-08-14T22:04:32.815Z,20.89
2022-08-14T22:07:38.915Z,20.90
2022-08-14T22:10:51.602Z,20.89
2022-08-14T22:14:02.235Z,20.90
2022-08-14T22:17:25.235Z,20.90
2022-08-14T22:20:39.279Z,20.91
2022-08-14T22:23:48.703Z,20.93
2022-08-14T22:27:00.416Z,20.90
2022-08-14T22:30:12.510Z,20.88
2022-08-14T22:33:20.257Z,20.88
2022-08-14T22:36:56.727Z,20.88
2022-08-14T22:40:46.585Z,20.86
2022-08-14T22:43:34.890Z,20.85
2022-08-14T22:46:43.344Z,20.87
2022-08-14T22:50:29.526Z,20.87
2022-08-14T22:53:16.582Z,20.89
2022-08-14T22:56:30.318Z,20.94
2022-08-14T22:59:38.945Z,20.97
2022-08-14T23:02:46.934Z,20.98
2022-08-14T23:05:54.757Z,20.95
2022-08-14T23:09:35.478Z,20.92
2022-08-14T23:12:31.871Z,20.87
2022-08-14T23:15:40.926Z,20.85
2022-08-14T23:18:53.445Z,20.87
2022-08-14T23:22:01.029Z,20.87
2022-08-14T23:25:10.947Z,20.91
2022-08-14T23:28:34.762Z,20.88
2022-08-14T23:31:52.402Z,20.80
2022-08-14T23:34:58.872Z,20.77
2022-08-14T23:38:06.874Z,20.76
2022-08-14T23:41:47.081Z,20.72
2022-08-14T23:45:03.360Z,20.69
2022-08-14T23:48:13.778Z,20.64
2022-08-14T23:51:28.556Z,20.66
2022-08-14T23:54:48.646Z,20.64
2022-08-14T23:57:58.116Z,20.56
